createdAt,value
2023-03-31T00:00:11.960Z,22.50
2023-03-31T00:02:41.798Z,20.53
2023-03-31T00:05:10.678Z,20.40
2023-03-31T00:07:40.477Z,23.23
2023-03-31T00:12:44.783Z,18.03
2023-03-31T00:15:13.329Z,16.83
2023-03-31T00:17:43.553Z,15.90
2023-03-31T00:20:12.629Z,17.40
2023-03-31T00:22:46.803Z,16.00
2023-03-31T00:25:15.759Z,16.70
2023-03-31T00:27:45.018Z,16.97
2023-03-31T00:30:14.493Z,12.93
2023-03-31T00:32:42.977Z,15.23
2023-03-31T00:35:11.558Z,13.03
2023-03-31T00:37:39.929Z,12.63
2023-03-31T00:40:10.581Z,11.47
2023-03-31T00:42:42.802Z,12.77
2023-03-31T00:45:27.322Z,15.77
2023-03-31T00:47:57.099Z,16.90
2023-03-31T00:50:29.101Z,11.90
2023-03-31T00:52:59.153Z,14.47
2023-03-31T00:55:30.532Z,9.77
2023-03-31T00:58:01.975Z,12.37
2023-03-31T01:00:30.407Z,8.37
2023-03-31T01:03:00.416Z,16.23
2023-03-31T01:05:30.627Z,11.50
2023-03-31T01:08:00.145Z,13.57
2023-03-31T01:10:31.637Z,14.20
2023-03-31T01:13:00.099Z,16.57
2023-03-31T01:15:28.604Z,14.87
2023-03-31T01:17:57.728Z,13.70
2023-03-31T01:20:30.844Z,12.07
2023-03-31T01:23:32.322Z,13.83
2023-03-31T01:26:15.253Z,9.83
2023-03-31T01:28:45.399Z,11.53
2023-03-31T01:31:34.532Z,11.27
2023-03-31T01:34:20.592Z,10.17
2023-03-31T01:37:05.119Z,10.17
2023-03-31T01:39:49.619Z,8.73
2023-03-31T01:42:19.182Z,10.20
2023-03-31T01:44:51.039Z,9.80
2023-03-31T01:47:23.397Z,12.27
2023-03-31T01:49:56.314Z,11.23
2023-03-31T01:52:26.006Z,13.13
2023-03-31T01:54:57.332Z,11.10
2023-03-31T01:57:29.675Z,10.67
2023-03-31T02:00:00.860Z,11.10
2023-03-31T02:02:30.379Z,11.60
2023-03-31T02:05:00.667Z,16.53
2023-03-31T02:07:30.918Z,17.83
2023-03-31T02:10:02.656Z,19.43
2023-03-31T02:12:32.919Z,19.37
2023-03-31T02:15:02.720Z,19.23
2023-03-31T02:17:32.875Z,18.67
2023-03-31T02:20:05.729Z,17.87
2023-03-31T02:22:36.240Z,18.13
2023-03-31T02:25:08.233Z,20.03
2023-03-31T02:27:38.283Z,16.90
2023-03-31T02:30:07.863Z,18.67
2023-03-31T02:32:38.288Z,17.90
2023-03-31T02:35:07.556Z,18.73
2023-03-31T02:37:36.113Z,23.13
2023-03-31T02:40:10.594Z,17.30
2023-03-31T02:42:39.930Z,19.20
2023-03-31T02:45:09.440Z,17.50
2023-03-31T02:47:37.919Z,19.37
2023-03-31T02:50:07.171Z,19.60
2023-03-31T02:52:52.232Z,17.23
2023-03-31T02:55:28.356Z,17.23
2023-03-31T02:58:05.886Z,15.00
2023-03-31T03:00:39.385Z,17.87
2023-03-31T03:03:16.503Z,17.03
2023-03-31T03:05:50.600Z,14.27
2023-03-31T03:08:22.320Z,13.43
2023-03-31T03:11:00.514Z,15.13
2023-03-31T03:13:33.466Z,12.87
2023-03-31T03:16:03.391Z,14.03
2023-03-31T03:18:31.940Z,15.60
2023-03-31T03:21:00.409Z,13.30
2023-03-31T03:23:28.837Z,13.43
2023-03-31T03:25:58.760Z,13.07
2023-03-31T03:28:27.311Z,13.30
2023-03-31T03:30:55.791Z,11.97
2023-03-31T03:33:25.088Z,13.10
2023-03-31T03:35:53.664Z,13.53
2023-03-31T03:38:22.203Z,12.10
2023-03-31T03:40:55.527Z,10.77
2023-03-31T03:43:25.581Z,12.13
2023-03-31T03:45:54.287Z,10.33
2023-03-31T03:48:23.274Z,9.63
2023-03-31T03:50:53.318Z,9.67
2023-03-31T03:53:22.163Z,10.03
2023-03-31T03:55:50.707Z,11.83
2023-03-31T03:58:19.885Z,11.77
2023-03-31T04:00:49.990Z,13.20
2023-03-31T04:03:18.728Z,11.20
2023-03-31T04:05:49.856Z,13.83
2023-03-31T04:08:18.431Z,11.07
2023-03-31T04:10:49.105Z,12.00
2023-03-31T04:13:17.740Z,14.77
2023-03-31T04:15:46.600Z,11.37
2023-03-31T04:18:23.304Z,13.63
2023-03-31T04:21:03.938Z,14.67
2023-03-31T04:23:33.037Z,9.73
2023-03-31T04:26:02.803Z,13.77
2023-03-31T04:28:35.196Z,11.57
2023-03-31T04:31:03.881Z,10.67
2023-03-31T04:33:38.659Z,12.53
2023-03-31T04:36:08.038Z,10.90
2023-03-31T04:38:36.657Z,12.57
2023-03-31T04:41:05.147Z,10.53
2023-03-31T04:43:33.637Z,10.33
2023-03-31T04:46:02.083Z,11.70
2023-03-31T04:48:30.814Z,14.67
2023-03-31T04:51:00.744Z,12.87
2023-03-31T04:53:29.293Z,13.43
2023-03-31T04:55:57.800Z,13.60
2023-03-31T04:58:26.336Z,12.93
2023-03-31T05:00:54.949Z,14.77
2023-03-31T05:03:23.593Z,15.23
2023-03-31T05:05:52.067Z,13.80
2023-03-31T05:08:22.287Z,14.97
2023-03-31T05:10:50.800Z,17.17
2023-03-31T05:13:19.250Z,14.53
2023-03-31T05:15:50.724Z,14.90
2023-03-31T05:18:19.233Z,15.30
2023-03-31T05:20:47.687Z,12.90
2023-03-31T05:23:16.223Z,13.33
2023-03-31T05:25:46.669Z,14.30
2023-03-31T05:28:15.120Z,13.47
2023-03-31T05:30:43.536Z,12.43
2023-03-31T05:33:11.983Z,12.77
2023-03-31T05:35:40.467Z,14.40
2023-03-31T05:38:08.893Z,14.53
2023-03-31T05:40:37.364Z,10.93
2023-03-31T05:43:07.279Z,12.83
2023-03-31T05:45:35.921Z,13.37
2023-03-31T05:48:04.542Z,13.50
2023-03-31T05:50:34.413Z,13.83
2023-03-31T05:53:02.911Z,11.30
2023-03-31T05:55:33.565Z,15.80
2023-03-31T05:58:02.152Z,12.70
2023-03-31T06:00:32.803Z,12.67
2023-03-31T06:03:01.328Z,12.43
2023-03-31T06:05:31.222Z,12.20
2023-03-31T06:07:59.771Z,13.90
2023-03-31T06:10:28.237Z,12.77
2023-03-31T06:12:56.747Z,13.87
2023-03-31T06:15:25.245Z,11.93
2023-03-31T06:17:55.164Z,11.93
2023-03-31T06:20:28.280Z,12.80
2023-03-31T06:22:57.161Z,10.83
2023-03-31T06:25:25.644Z,16.10
2023-03-31T06:27:54.067Z,13.03
2023-03-31T06:30:22.819Z,15.13
2023-03-31T06:32:51.300Z,12.80
2023-03-31T06:35:21.208Z,11.37
2023-03-31T06:37:49.679Z,13.30
2023-03-31T06:40:18.570Z,11.13
2023-03-31T06:42:47.032Z,14.20
2023-03-31T06:45:15.522Z,12.07
2023-03-31T06:47:43.994Z,13.83
2023-03-31T06:50:12.703Z,9.73
2023-03-31T06:52:42.572Z,10.90
2023-03-31T06:55:13.406Z,12.40
2023-03-31T06:57:42.428Z,9.03
2023-03-31T07:00:11.571Z,10.17
2023-03-31T07:02:40.153Z,10.43
2023-03-31T07:05:09.429Z,13.87
2023-03-31T07:07:37.906Z,8.67
2023-03-31T07:10:08.420Z,9.43
2023-03-31T07:12:36.864Z,10.73
2023-03-31T07:15:05.575Z,9.87
2023-03-31T07:17:34.038Z,7.77
2023-03-31T07:20:05.088Z,8.80
2023-03-31T07:22:33.570Z,12.30
2023-03-31T07:25:01.995Z,10.53
2023-03-31T07:27:31.859Z,7.77
2023-03-31T07:30:00.464Z,10.37
2023-03-31T07:32:29.426Z,11.33
2023-03-31T07:34:57.931Z,8.40
2023-03-31T07:37:26.611Z,10.10
2023-03-31T07:39:55.146Z,11.37
2023-03-31T07:42:24.000Z,8.80
2023-03-31T07:44:53.920Z,12.23
2023-03-31T07:47:22.373Z,13.50
2023-03-31T07:49:50.958Z,12.83
2023-03-31T07:52:19.942Z,10.47
2023-03-31T07:54:48.688Z,8.57
2023-03-31T07:57:19.410Z,11.80
2023-03-31T07:59:48.202Z,10.97
2023-03-31T08:02:21.317Z,8.97
2023-03-31T08:04:50.390Z,12.20
2023-03-31T08:07:18.860Z,16.27
2023-03-31T08:09:47.939Z,9.97
2023-03-31T08:12:16.825Z,8.73
2023-03-31T08:14:45.271Z,14.30
2023-03-31T08:17:13.724Z,9.57
2023-03-31T08:19:43.694Z,7.70
2023-03-31T08:22:12.130Z,9.87
2023-03-31T08:24:40.730Z,11.73
2023-03-31T08:27:11.989Z,9.40
2023-03-31T08:29:42.145Z,9.90
2023-03-31T08:32:10.734Z,12.07
2023-03-31T08:34:42.647Z,12.50
2023-03-31T08:37:12.553Z,9.20
2023-03-31T08:39:41.258Z,11.50
2023-03-31T08:42:15.917Z,12.20
2023-03-31T08:44:46.669Z,10.47
2023-03-31T08:47:17.913Z,13.83
2023-03-31T08:49:47.708Z,13.47
2023-03-31T08:52:21.365Z,11.70
2023-03-31T08:54:51.767Z,12.43
2023-03-31T08:57:21.915Z,16.60
2023-03-31T08:59:51.215Z,13.90
2023-03-31T09:02:23.612Z,11.23
2023-03-31T09:04:57.583Z,10.17
2023-03-31T09:07:32.213Z,17.17
2023-03-31T09:10:05.044Z,13.23
2023-03-31T09:12:37.535Z,10.13
2023-03-31T09:15:08.203Z,17.30
2023-03-31T09:17:39.939Z,17.83
2023-03-31T09:20:14.295Z,12.80
2023-03-31T09:22:46.858Z,12.07
2023-03-31T09:25:17.027Z,15.17
2023-03-31T09:27:47.729Z,13.10
2023-03-31T09:30:18.245Z,14.90
2023-03-31T09:32:47.828Z,14.60
2023-03-31T09:35:18.379Z,14.80
2023-03-31T09:37:48.225Z,22.97
2023-03-31T09:40:18.572Z,18.17
2023-03-31T09:42:47.750Z,25.90
2023-03-31T09:45:17.388Z,25.90
2023-03-31T09:47:48.042Z,18.53
2023-03-31T09:50:17.522Z,20.50
2023-03-31T09:52:48.035Z,17.63
2023-03-31T09:55:35.818Z,17.00
2023-03-31T09:58:10.516Z,23.47
2023-03-31T10:00:42.832Z,19.13
2023-03-31T10:03:14.679Z,22.63
2023-03-31T10:05:51.051Z,22.33
2023-03-31T10:08:25.720Z,20.63
2023-03-31T10:10:56.437Z,19.80
2023-03-31T10:13:26.143Z,21.77
2023-03-31T10:15:55.461Z,20.33
2023-03-31T10:18:28.415Z,22.77
2023-03-31T10:21:00.329Z,26.83
2023-03-31T10:23:30.645Z,25.07
2023-03-31T10:26:01.162Z,39.23
2023-03-31T10:28:32.995Z,30.90
2023-03-31T10:31:03.158Z,31.10
2023-03-31T10:33:34.780Z,37.27
2023-03-31T10:36:04.358Z,24.70
2023-03-31T10:38:34.614Z,29.37
2023-03-31T10:41:04.862Z,28.73
2023-03-31T10:43:38.020Z,27.07
2023-03-31T10:46:06.659Z,35.13
2023-03-31T10:48:37.698Z,29.83
2023-03-31T10:51:07.718Z,37.23
2023-03-31T10:53:42.108Z,36.30
2023-03-31T10:56:31.865Z,30.63
2023-03-31T10:59:14.830Z,35.87
2023-03-31T11:01:47.394Z,27.90
2023-03-31T11:04:27.228Z,34.30
2023-03-31T11:06:58.263Z,28.67
2023-03-31T11:09:35.594Z,30.63
2023-03-31T11:12:08.564Z,33.23
2023-03-31T11:14:42.646Z,23.50
2023-03-31T11:17:18.072Z,33.30
2023-03-31T11:19:50.512Z,24.30
2023-03-31T11:22:22.925Z,27.23
2023-03-31T11:25:14.194Z,29.43
2023-03-31T11:27:52.258Z,26.03
2023-03-31T11:30:24.302Z,35.00
2023-03-31T11:33:00.105Z,27.63
2023-03-31T11:35:38.480Z,32.20
2023-03-31T11:38:17.335Z,25.73
2023-03-31T11:40:49.637Z,30.80
2023-03-31T11:43:24.101Z,29.00
2023-03-31T11:45:54.248Z,24.37
2023-03-31T11:48:27.897Z,26.67
2023-03-31T11:50:57.044Z,21.83
2023-03-31T11:53:26.738Z,25.47
2023-03-31T11:55:56.622Z,28.23
2023-03-31T11:58:29.901Z,19.43
2023-03-31T12:01:02.645Z,30.27
2023-03-31T12:03:35.164Z,22.10
2023-03-31T12:06:06.412Z,27.40
2023-03-31T12:08:38.308Z,27.63
2023-03-31T12:11:11.006Z,20.47
2023-03-31T12:13:46.741Z,26.90
2023-03-31T12:16:17.554Z,27.87
2023-03-31T12:18:49.552Z,21.63
2023-03-31T12:21:18.620Z,25.97
2023-03-31T12:23:47.401Z,23.27
2023-03-31T12:26:19.944Z,25.83
2023-03-31T12:28:51.344Z,37.53
2023-03-31T12:31:22.473Z,25.90
2023-03-31T12:33:53.774Z,25.73
2023-03-31T12:36:26.789Z,26.70
2023-03-31T12:38:59.927Z,19.90
2023-03-31T12:41:33.360Z,29.93
2023-03-31T12:44:07.719Z,22.67
2023-03-31T12:46:41.317Z,26.63
2023-03-31T12:49:17.312Z,27.53
2023-03-31T12:51:57.378Z,20.10
2023-03-31T12:54:34.221Z,24.03
2023-03-31T12:57:06.816Z,24.47
2023-03-31T12:59:37.537Z,19.33
2023-03-31T13:02:26.585Z,21.23
2023-03-31T13:04:55.139Z,18.57
2023-03-31T13:07:40.604Z,21.63
2023-03-31T13:10:29.024Z,22.93
2023-03-31T13:13:03.348Z,18.63
2023-03-31T13:15:33.719Z,24.00
2023-03-31T13:18:02.994Z,20.37
2023-03-31T13:20:36.581Z,21.07
2023-03-31T13:23:07.268Z,20.50
2023-03-31T13:25:41.166Z,19.00
2023-03-31T13:28:15.544Z,18.17
2023-03-31T13:30:50.395Z,17.77
2023-03-31T13:33:21.638Z,15.70
2023-03-31T13:35:51.864Z,21.17
2023-03-31T13:38:25.614Z,15.53
2023-03-31T13:41:08.991Z,15.87
2023-03-31T13:43:55.610Z,16.30
2023-03-31T13:46:36.774Z,11.73
2023-03-31T13:49:10.451Z,16.33
2023-03-31T13:51:43.488Z,13.20
2023-03-31T13:54:29.151Z,12.13
2023-03-31T13:57:11.699Z,11.65
2023-03-31T13:59:48.699Z,12.73
2023-03-31T14:02:47.134Z,14.50
2023-03-31T14:05:30.402Z,9.87
2023-03-31T14:08:00.726Z,11.43
2023-03-31T14:10:31.017Z,10.13
2023-03-31T14:13:09.901Z,10.98
2023-03-31T14:15:39.405Z,10.43
2023-03-31T14:18:09.695Z,9.68
2023-03-31T14:20:42.850Z,12.60
2023-03-31T14:23:16.401Z,10.63
2023-03-31T14:25:50.445Z,10.60
2023-03-31T14:28:37.384Z,11.53
2023-03-31T14:31:15.591Z,8.27
2023-03-31T14:33:50.038Z,8.73
2023-03-31T14:36:21.719Z,10.67
2023-03-31T14:38:50.523Z,9.00
2023-03-31T14:41:29.642Z,9.37
2023-03-31T14:44:00.004Z,12.97
2023-03-31T14:46:29.031Z,12.20
2023-03-31T14:48:58.963Z,14.25
2023-03-31T14:51:29.047Z,15.20
2023-03-31T14:53:58.371Z,12.13
2023-03-31T14:56:31.662Z,11.70
2023-03-31T14:59:00.117Z,15.27
2023-03-31T15:01:34.492Z,13.67
2023-03-31T15:04:07.836Z,13.57
2023-03-31T15:06:39.787Z,11.30
2023-03-31T15:09:08.333Z,18.30
2023-03-31T15:11:36.846Z,14.83
2023-03-31T15:14:05.985Z,14.93
2023-03-31T15:16:38.034Z,20.90
2023-03-31T15:19:13.096Z,13.60
2023-03-31T15:21:41.737Z,16.70
2023-03-31T15:24:13.417Z,16.37
2023-03-31T15:26:44.375Z,13.33
2023-03-31T15:29:16.595Z,14.67
2023-03-31T15:31:45.263Z,13.83
2023-03-31T15:34:16.751Z,17.00
2023-03-31T15:36:45.449Z,16.10
2023-03-31T15:39:15.974Z,16.57
2023-03-31T15:41:45.268Z,18.60
2023-03-31T15:44:28.824Z,16.23
2023-03-31T15:46:59.957Z,17.37
2023-03-31T15:49:30.206Z,19.60
2023-03-31T15:52:00.572Z,16.30
2023-03-31T15:54:34.794Z,18.40
2023-03-31T15:57:03.813Z,24.63
2023-03-31T15:59:41.771Z,18.20
2023-03-31T16:02:21.597Z,17.73
2023-03-31T16:04:52.430Z,16.73
2023-03-31T16:07:23.476Z,17.10
2023-03-31T16:09:54.204Z,18.47
2023-03-31T16:12:25.574Z,19.13
2023-03-31T16:14:56.377Z,17.93
2023-03-31T16:17:28.420Z,22.83
2023-03-31T16:20:00.091Z,18.93
2023-03-31T16:22:34.324Z,16.33
2023-03-31T16:25:02.921Z,31.07
2023-03-31T16:27:32.166Z,17.93
2023-03-31T16:30:07.663Z,15.93
2023-03-31T16:32:36.310Z,14.20
2023-03-31T16:35:07.235Z,13.63
2023-03-31T16:37:35.775Z,13.63
2023-03-31T16:40:05.634Z,13.80
2023-03-31T16:42:34.119Z,14.17
2023-03-31T16:45:13.743Z,12.83
2023-03-31T16:47:45.555Z,14.03
2023-03-31T16:50:15.909Z,12.07
2023-03-31T16:52:45.418Z,13.77
2023-03-31T16:55:13.992Z,20.07
2023-03-31T16:57:42.618Z,19.10
2023-03-31T17:00:11.809Z,23.47
2023-03-31T17:02:40.381Z,18.13
2023-03-31T17:05:13.507Z,22.53
2023-03-31T17:07:43.927Z,19.87
2023-03-31T17:10:12.927Z,20.53
2023-03-31T17:12:41.482Z,23.73
2023-03-31T17:15:10.644Z,25.73
2023-03-31T17:17:39.565Z,21.60
2023-03-31T17:20:09.200Z,19.33
2023-03-31T17:22:37.989Z,23.00
2023-03-31T17:25:08.256Z,25.20
2023-03-31T17:27:37.652Z,24.33
2023-03-31T17:30:06.774Z,16.33
2023-03-31T17:32:35.237Z,23.83
2023-03-31T17:35:03.920Z,25.27
2023-03-31T17:37:33.083Z,22.73
2023-03-31T17:40:01.623Z,22.57
2023-03-31T17:42:32.134Z,17.37
2023-03-31T17:45:00.588Z,16.00
2023-03-31T17:47:29.184Z,17.80
2023-03-31T17:49:57.690Z,16.33
2023-03-31T17:52:26.123Z,22.83
2023-03-31T17:54:56.192Z,22.97
2023-03-31T17:57:24.670Z,27.50
2023-03-31T17:59:54.577Z,20.67
2023-03-31T18:02:23.081Z,23.63
2023-03-31T18:04:51.590Z,28.30
2023-03-31T18:07:20.491Z,17.87
2023-03-31T18:09:48.999Z,18.23
2023-03-31T18:12:17.687Z,20.97
2023-03-31T18:14:46.219Z,18.13
2023-03-31T18:17:16.186Z,16.63
2023-03-31T18:19:44.953Z,22.00
2023-03-31T18:22:13.426Z,17.93
2023-03-31T18:24:42.189Z,19.40
2023-03-31T18:27:10.772Z,20.03
2023-03-31T18:29:39.856Z,31.23
2023-03-31T18:32:09.897Z,22.30
2023-03-31T18:34:39.957Z,20.57
2023-03-31T18:37:08.508Z,24.60
2023-03-31T18:39:37.194Z,15.20
2023-03-31T18:42:05.992Z,19.50
2023-03-31T18:44:35.713Z,19.80
2023-03-31T18:47:04.361Z,18.50
2023-03-31T18:49:33.022Z,18.17
2023-03-31T18:52:04.434Z,14.70
2023-03-31T18:54:32.913Z,15.40
2023-03-31T18:57:02.107Z,19.27
2023-03-31T18:59:30.571Z,15.13
2023-03-31T19:01:59.056Z,15.47
2023-03-31T19:04:28.120Z,16.93
2023-03-31T19:06:56.789Z,18.50
2023-03-31T19:09:27.987Z,24.23
2023-03-31T19:11:57.230Z,18.80
2023-03-31T19:14:25.850Z,20.77
2023-03-31T19:16:54.351Z,17.87
2023-03-31T19:19:23.200Z,20.07
2023-03-31T19:21:52.525Z,22.00
2023-03-31T19:24:20.960Z,19.03
2023-03-31T19:26:50.804Z,18.27
2023-03-31T19:29:19.417Z,17.43
2023-03-31T19:31:48.628Z,19.83
2023-03-31T19:34:17.850Z,19.50
2023-03-31T19:36:46.379Z,21.77
2023-03-31T19:39:14.859Z,21.43
2023-03-31T19:41:43.557Z,18.43
2023-03-31T19:44:13.428Z,17.47
2023-03-31T19:46:41.879Z,16.97
2023-03-31T19:49:10.334Z,18.23
2023-03-31T19:51:38.843Z,23.13
2023-03-31T19:54:07.734Z,19.83
2023-03-31T19:56:36.212Z,23.63
2023-03-31T19:59:04.732Z,21.10
2023-03-31T20:01:34.747Z,24.00
2023-03-31T20:04:03.373Z,24.67
2023-03-31T20:06:32.907Z,26.63
2023-03-31T20:09:02.133Z,21.70
2023-03-31T20:11:32.156Z,21.63
2023-03-31T20:14:00.824Z,24.83
2023-03-31T20:16:30.654Z,26.93
2023-03-31T20:19:01.454Z,21.53
2023-03-31T20:21:30.810Z,23.63
2023-03-31T20:23:59.613Z,25.23
2023-03-31T20:26:29.560Z,19.90
2023-03-31T20:28:58.463Z,25.17
2023-03-31T20:31:28.205Z,24.27
2023-03-31T20:33:57.572Z,26.07
2023-03-31T20:36:29.501Z,22.60
2023-03-31T20:38:58.404Z,23.90
2023-03-31T20:41:28.085Z,28.80
2023-03-31T20:43:56.927Z,20.27
2023-03-31T20:46:25.655Z,21.87
2023-03-31T20:48:55.060Z,23.93
2023-03-31T20:51:24.725Z,22.57
2023-03-31T20:53:55.672Z,24.97
2023-03-31T20:56:25.326Z,22.63
2023-03-31T20:58:55.058Z,21.43
2023-03-31T21:01:24.869Z,17.47
2023-03-31T21:03:54.800Z,25.60
2023-03-31T21:06:23.930Z,25.53
2023-03-31T21:08:54.571Z,19.30
2023-03-31T21:11:24.176Z,27.30
2023-03-31T21:13:53.366Z,21.83
2023-03-31T21:16:22.228Z,27.40
2023-03-31T21:18:51.578Z,20.80
2023-03-31T21:21:20.682Z,24.87
2023-03-31T21:23:49.877Z,26.50
2023-03-31T21:26:19.718Z,20.77
2023-03-31T21:28:48.354Z,21.17
2023-03-31T21:31:18.158Z,23.30
2023-03-31T21:33:47.587Z,19.43
2023-03-31T21:36:17.840Z,19.40
2023-03-31T21:38:46.785Z,21.37
2023-03-31T21:41:16.653Z,24.60
2023-03-31T21:43:47.034Z,23.70
2023-03-31T21:46:17.635Z,25.40
2023-03-31T21:48:46.239Z,26.43
2023-03-31T21:51:14.733Z,24.87
2023-03-31T21:53:43.346Z,21.00
2023-03-31T21:56:12.354Z,23.97
2023-03-31T21:58:40.857Z,22.17
2023-03-31T22:01:10.751Z,27.60
2023-03-31T22:03:41.139Z,28.93
2023-03-31T22:06:09.687Z,22.27
2023-03-31T22:08:39.422Z,21.73
2023-03-31T22:11:08.418Z,19.43
2023-03-31T22:13:37.631Z,19.23
2023-03-31T22:16:06.305Z,17.47
2023-03-31T22:18:36.271Z,19.17
2023-03-31T22:21:06.473Z,16.77
2023-03-31T22:23:34.910Z,14.47
2023-03-31T22:26:03.369Z,18.10
2023-03-31T22:28:31.838Z,13.80
2023-03-31T22:31:00.629Z,13.57
2023-03-31T22:33:29.104Z,11.67
2023-03-31T22:35:59.014Z,13.10
2023-03-31T22:38:27.507Z,15.00
2023-03-31T22:40:56.166Z,14.73
2023-03-31T22:43:24.759Z,13.80
2023-03-31T22:45:53.198Z,14.00
2023-03-31T22:48:21.717Z,13.80
2023-03-31T22:50:50.321Z,14.13
2023-03-31T22:53:20.170Z,15.07
2023-03-31T22:55:53.708Z,11.77
2023-03-31T22:58:23.114Z,13.73
2023-03-31T23:00:57.150Z,12.37
2023-03-31T23:03:25.950Z,9.73
2023-03-31T23:05:54.597Z,10.50
2023-03-31T23:08:24.448Z,7.63
2023-03-31T23:10:57.686Z,9.93
2023-03-31T23:13:26.699Z,5.57
2023-03-31T23:15:55.715Z,6.57
2023-03-31T23:18:24.194Z,5.17
2023-03-31T23:20:52.601Z,4.67
2023-03-31T23:23:21.205Z,5.13
2023-03-31T23:25:51.085Z,4.20
2023-03-31T23:28:19.531Z,3.00
2023-03-31T23:30:56.547Z,3.70
2023-03-31T23:33:25.583Z,3.53
2023-03-31T23:35:54.332Z,3.70
2023-03-31T23:38:22.908Z,4.40
2023-03-31T23:40:53.847Z,3.23
2023-03-31T23:43:22.281Z,3.47
2023-03-31T23:45:50.934Z,3.03
2023-03-31T23:48:19.423Z,4.30
2023-03-31T23:50:47.866Z,3.80
2023-03-31T23:53:16.488Z,3.47
2023-03-31T23:55:44.997Z,3.50
2023-03-31T23:58:14.843Z,3.90
